Lihue, HI

8:28 AM HST on September 02, 2014 (GMT -1000)
Lihue | Change Station
CLOSE
Current Station
Airport
Location: Lihue,
Elevation: 102 ft
Nearby Weather Stations

Elev 102 ft 21.98 °N, 159.34 °W | Updated 35 minutes ago

Mostly Cloudy
Mostly Cloudy
79 °F
Feels Like 79 °F
N
5
Wind Variable Wind from WNW

Today
High -- | Low -- °F
--% Chance of Precip.
Yesterday
High -- | Low -- °F
Precip. -- in
6:20 AM 6:52 PM
First Quarter, 53% visible
Pressure 30.03 in
Visibility 10.0 miles
Clouds Scattered Clouds 2000 ft
Mostly Cloudy 2400 ft
Dew Point 70 °F
Humidity 74%
Rainfall 0.00 in
Snow Depth Not available.
UV 1 out of 12
Pollen Not available.
Air Quality Not available.
Flu Activity Not available.
METAR PHLI 021753Z 29004KT 10SM SCT020 BKN024 26/21 A3004 RMK AO2 SLP168 T02610211 10267 20228 50007 $

More Conditions Fewer Conditions

Pressure 30.03 in
Visibility 10.0 miles
Clouds Scattered Clouds 2000 ft
Mostly Cloudy 2400 ft
Dew Point 70 °F
Humidity 74%
Rainfall 0.00 in
Snow Depth Not available.
UV 1 out of 12
Pollen Not available.
Air Quality Not available.
Flu Activity Not available.
METAR PHLI 021753Z 29004KT 10SM SCT020 BKN024 26/21 A3004 RMK AO2 SLP168 T02610211 10267 20228 50007 $

More Conditions Fewer Conditions

10-Day Weather Forecast

Almanac

Astronomy

Sep. 02, 2014 Rise Set
Actual Time 6:20 AM HST 6:52 PM HST
Civil Twilight 5:58 AM HST 7:15 PM HST
Nautical Twilight 5:31 AM HST 7:41 PM HST
Astronomical Twilight 5:04 AM HST 8:08 PM HST
Moon 1:25 PM HST No Moon Set
Length of Visible Light 13h 17m
Length of Day
12h 32m
Tomorrow will be 1m 13s shorter.
First Quarter, 53% of the Moon is Illuminated
Today
First Quarter
Sep 8
Full
Sep 15
Last Quarter
Sep 24
New
Oct 1
First Quarter

Today's Extremes

State Highs State Lows

Community

WunderPhotos

Upload Photos

1,749,727 photos uploaded!

WunderBlogs® & News

Nearby

Snow Depth

Station Depth Elevation
No new snow has been reported.

Earthquake Activity

City Distance Mag. Time & Date
No recent earthquake activity has been reported nearby.
Minimum magnitude displayed is 2.5.

Coastal Water Temperatures

Place Temperature
No Stations Reporting

Nearby Weather Stations